METAR AND TAF INFORMATION
METAR FOR LIRQ
ADDS - METARS form results

(1805 UTC 22 January 2022)
Data provider http://aviationweather.gov/metar/data/
 
METAR text: LIRQ 221750Z VRB02KT CAVOK 03/M00 Q1027
Conditions at: LIRQ (FIRENZE/PERETOLA, IT) observed 1750 UTC 22 January 2022
Temperature: 3.0°C (37°F)
Dewpoint: 0.0°C (32°F) [RH = 81%]
Pressure (altimeter): 30.32 inches Hg (1027.0 mb)
Winds: variable direction winds at 2 MPH (2 knots; 1.0 m/s)
Visibility: 6 or more miles (10+ km)
Ceiling: ceiling and visibility are OK
Clouds: unknown
Weather: no significant weather observed at this time

METAR text: LIRQ 221720Z 10004KT CAVOK 04/M01 Q1026
Conditions at: LIRQ (FIRENZE/PERETOLA, IT) observed 1720 UTC 22 January 2022
Temperature: 4.0°C (39°F)
Dewpoint: -1.0°C (30°F) [RH = 70%]
Pressure (altimeter): 30.30 inches Hg (1026.0 mb)
Winds: from the E (100 degrees) at 5 MPH (4 knots; 2.1 m/s)
Visibility: 6 or more miles (10+ km)
Ceiling: ceiling and visibility are OK
Clouds: unknown
Weather: no significant weather observed at this time

Forecast for: LIRQ (FIRENZE/PERETOLA, IT)
Text: TAF LIRQ 221700Z 2218/2318 VRB05KT CAVOK
Forecast period: 1800 UTC 22 January 2022 to 1800 UTC 23 January 2022
Forecast type: FROM: standard forecast or significant change
Winds: variable direction winds at 6 MPH (5 knots; 2.6 m/s)
Visibility: 6 or more miles (10+ km)
Ceiling: unknown
Clouds: missing
Weather: NSW  (no significant weather)

 AIRPORT MAP

 RUNWAY INFORMATION
Runway 05 Runway length 5425 ft Runway width 98 ft
Runway elevation 123 ft Runway displaced threshold 492 ft Runway heading 48
Runway 23 Runway length 5425 ft Runway width 98 ft
Runway elevation 132 ft Runway displaced threshold 2287 ft Runway heading 228

 AIRPORT FREQUENCIES
Type APP Name APP Frequency 126.075 MHZ
Type ATIS Name ATIS Frequency 129.35 MHZ
Type TWR Name FIRENZE TW Frequency 118.3 MHZ

 AIRPORT NEAR NAVIGATION AIDS
Type VOR-DME Name Peretola Frequency 112500 KHZ



Datenschutz / Privacy Policy • Impressum / Imprint • Disclaimer

Powered by Virtual Airlines Manager [v2.6.2]